Casper-Natrona County International Airport Casper US
ICAO: KCPR
IATA: CPR
Category: Large
Scheduled Services: Yes

Elevation: 5350 ft
TransAlt. 18000 ft.

Airport Communications:
CASPER APP/DEP:119
VFR ADVSY SVC:118.3
ATIS:126.15
CTAF:118.3
CASPER GND/CLNC DEL:121.9
CASPER RDO:122.2
CASPER TWR:118.3
UNICOM:122.95

KCPR Zoom In..

Runways:

(A) RW 03 length 10165 ft width 150 ft
ILS 111.30 / hdg 32

(B) RW 08 length 8679 ft width 150 ft
ILS 110.30 / hdg 77

(C) RW 21 length 10165 ft width 150 ft
---- / hdg 212

(D) RW 26 length 8679 ft width 150 ft
---- / hdg 257

Location; KCPR
Day. 15 / Time. 21.53 Zulu
* Altimeter: 30.18
* Temperature: 28° c. 82.4°f.
* Wind from: VRB° Speed 05 kn.
Dewpoint: 12° c.
Visibility: 10 Statute Miles.
Clouds: Clear (automated report).

KCPR 152153Z VRB05KT 10SM CLR 28/12 A3018 RMK AO2 SLP149 T02830122


Wind From VRB°
Speed 05 kn.

 
 
jpsmedia.com for Web Design worldairports.se 2018   terms of use